createdAt,value
2018-04-09T00:00:32.782Z,5.87
2018-04-09T00:03:00.265Z,5.90
2018-04-09T00:05:27.716Z,7.03
2018-04-09T00:07:55.183Z,6.50
2018-04-09T00:10:22.635Z,6.60
2018-04-09T00:12:50.103Z,6.37
2018-04-09T00:15:17.553Z,6.30
2018-04-09T00:17:45.011Z,5.50
2018-04-09T00:20:12.470Z,6.73
2018-04-09T00:22:40.004Z,7.53
2018-04-09T00:25:07.464Z,8.07
2018-04-09T00:27:34.917Z,6.30
2018-04-09T00:30:02.377Z,6.60
2018-04-09T00:32:29.833Z,6.40
2018-04-09T00:34:57.298Z,6.27
2018-04-09T00:37:24.750Z,6.90
2018-04-09T00:39:52.309Z,6.80
2018-04-09T00:42:19.762Z,6.40
2018-04-09T00:44:47.231Z,6.20
2018-04-09T00:47:14.697Z,6.73
2018-04-09T00:49:42.172Z,6.63
2018-04-09T00:52:09.632Z,6.73
2018-04-09T00:54:37.076Z,7.37
2018-04-09T00:57:04.530Z,6.20
2018-04-09T00:59:32.007Z,7.00
2018-04-09T01:01:59.516Z,5.83
2018-04-09T01:04:26.953Z,7.00
2018-04-09T01:06:55.177Z,5.43
2018-04-09T01:09:22.677Z,6.63
2018-04-09T01:11:50.898Z,6.23
2018-04-09T01:14:18.352Z,6.10
2018-04-09T01:16:45.820Z,6.43
2018-04-09T01:19:13.281Z,5.70
2018-04-09T01:21:40.744Z,6.17
2018-04-09T01:24:08.288Z,7.10
2018-04-09T01:26:35.744Z,6.70
2018-04-09T01:29:03.199Z,6.90
2018-04-09T01:31:30.760Z,6.37
2018-04-09T01:33:58.214Z,6.33
2018-04-09T01:36:25.666Z,6.10
2018-04-09T01:38:53.136Z,6.63
2018-04-09T01:41:20.780Z,5.90
2018-04-09T01:43:48.299Z,6.00
2018-04-09T01:46:15.733Z,6.33
2018-04-09T01:48:43.192Z,6.00
2018-04-09T01:51:10.631Z,6.80
2018-04-09T01:53:38.845Z,7.13
2018-04-09T01:56:06.304Z,5.90
2018-04-09T01:58:33.785Z,7.43
2018-04-09T02:01:01.248Z,6.53
2018-04-09T02:03:28.713Z,7.70
2018-04-09T02:05:56.181Z,7.40
2018-04-09T02:08:23.636Z,7.80
2018-04-09T02:10:51.085Z,6.03
2018-04-09T02:13:18.545Z,6.90
2018-04-09T02:15:45.995Z,6.07
2018-04-09T02:18:13.449Z,7.27
2018-04-09T02:20:40.900Z,7.33
2018-04-09T02:23:09.113Z,6.50
2018-04-09T02:25:36.563Z,7.10
2018-04-09T02:28:04.024Z,7.33
2018-04-09T02:30:31.480Z,6.93
2018-04-09T02:32:58.937Z,6.50
2018-04-09T02:35:26.386Z,5.97
2018-04-09T02:37:53.859Z,6.73
2018-04-09T02:40:21.311Z,6.60
2018-04-09T02:42:48.781Z,6.97
2018-04-09T02:45:16.238Z,7.23
2018-04-09T02:47:43.745Z,7.50
2018-04-09T02:50:12.000Z,6.80
2018-04-09T02:52:39.454Z,7.83
2018-04-09T02:55:06.894Z,7.00
2018-04-09T02:57:34.339Z,7.00
2018-04-09T03:00:01.813Z,6.83
2018-04-09T03:02:29.284Z,7.47
2018-04-09T03:04:56.728Z,7.60
2018-04-09T03:07:24.197Z,6.70
2018-04-09T03:09:51.644Z,7.00
2018-04-09T03:12:19.111Z,6.87
2018-04-09T03:14:46.624Z,7.30
2018-04-09T03:17:14.094Z,7.80
2018-04-09T03:19:41.541Z,7.83
2018-04-09T03:22:09.013Z,8.23
2018-04-09T03:24:36.456Z,7.27
2018-04-09T03:27:03.914Z,6.67
2018-04-09T03:29:31.393Z,7.17
2018-04-09T03:31:58.858Z,7.10
2018-04-09T03:34:26.299Z,7.00
2018-04-09T03:36:53.794Z,7.17
2018-04-09T03:39:21.230Z,6.57
2018-04-09T03:41:48.671Z,7.50
2018-04-09T03:44:16.151Z,6.90
2018-04-09T03:46:43.618Z,7.13
2018-04-09T03:49:11.081Z,7.80
2018-04-09T03:51:38.528Z,7.63
2018-04-09T03:54:05.979Z,7.90
2018-04-09T03:56:33.448Z,8.00
2018-04-09T03:59:01.075Z,8.03
2018-04-09T04:01:28.530Z,7.40
2018-04-09T04:03:55.987Z,8.73
2018-04-09T04:06:23.441Z,8.10
2018-04-09T04:08:50.904Z,6.90
2018-04-09T04:11:18.368Z,8.27
2018-04-09T04:13:45.824Z,7.83
2018-04-09T04:16:25.251Z,7.00
2018-04-09T04:19:04.535Z,8.30
2018-04-09T04:21:44.697Z,7.43
2018-04-09T04:24:12.966Z,7.90
2018-04-09T04:26:41.509Z,7.33
2018-04-09T04:29:09.005Z,8.30
2018-04-09T04:31:37.227Z,7.10
2018-04-09T04:34:04.713Z,8.40
2018-04-09T04:36:32.168Z,7.37
2018-04-09T04:38:59.634Z,8.50
2018-04-09T04:41:27.076Z,8.10
2018-04-09T04:43:54.543Z,7.17
2018-04-09T04:46:21.985Z,7.80
2018-04-09T04:48:49.453Z,8.13
2018-04-09T04:51:16.904Z,7.47
2018-04-09T04:53:45.352Z,8.60
2018-04-09T04:56:12.806Z,7.63
2018-04-09T04:58:40.265Z,7.67
2018-04-09T05:01:07.744Z,8.87
2018-04-09T05:03:35.201Z,8.80
2018-04-09T05:06:02.653Z,8.27
2018-04-09T05:08:30.117Z,8.03
2018-04-09T05:10:57.566Z,8.40
2018-04-09T05:13:25.025Z,8.37
2018-04-09T05:15:52.585Z,8.20
2018-04-09T05:18:20.042Z,7.37
2018-04-09T05:20:47.494Z,8.40
2018-04-09T05:23:14.949Z,8.10
2018-04-09T05:25:42.414Z,8.27
2018-04-09T05:28:09.850Z,8.70
2018-04-09T05:30:37.289Z,9.30
2018-04-09T05:33:05.521Z,8.70
2018-04-09T05:35:32.982Z,8.83
2018-04-09T05:38:00.575Z,8.37
2018-04-09T05:40:28.025Z,9.13
2018-04-09T05:42:55.472Z,9.13
2018-04-09T05:45:22.937Z,9.43
2018-04-09T05:47:50.422Z,8.60
2018-04-09T05:50:18.645Z,9.07
2018-04-09T05:52:46.102Z,9.03
2018-04-09T05:55:13.556Z,8.50
2018-04-09T05:57:41.004Z,8.70
2018-04-09T06:00:08.469Z,8.70
2018-04-09T06:02:35.913Z,7.60
2018-04-09T06:05:03.379Z,7.80
2018-04-09T06:07:31.024Z,7.90
2018-04-09T06:09:58.481Z,8.23
2018-04-09T06:12:25.916Z,8.60
2018-04-09T06:14:54.160Z,8.97
2018-04-09T06:17:21.604Z,7.90
2018-04-09T06:19:49.062Z,7.90
2018-04-09T06:22:16.508Z,9.67
2018-04-09T06:24:43.971Z,8.57
2018-04-09T06:27:11.430Z,10.10
2018-04-09T06:29:38.891Z,9.00
2018-04-09T06:32:06.346Z,8.87
2018-04-09T06:34:33.797Z,9.57
2018-04-09T06:37:01.254Z,7.53
2018-04-09T06:39:28.704Z,8.57
2018-04-09T06:41:56.166Z,7.30
2018-04-09T06:44:23.625Z,7.70
2018-04-09T06:46:51.078Z,8.17
2018-04-09T06:49:18.863Z,8.00
2018-04-09T06:51:46.352Z,7.83
2018-04-09T06:54:14.571Z,7.43
2018-04-09T06:56:42.020Z,8.90
2018-04-09T06:59:09.476Z,8.43
2018-04-09T07:01:36.934Z,8.07
2018-04-09T07:04:04.379Z,8.63
2018-04-09T07:06:31.865Z,9.30
2018-04-09T07:09:00.128Z,9.33
2018-04-09T07:11:27.523Z,9.13
2018-04-09T07:13:54.982Z,8.67
2018-04-09T07:16:22.444Z,7.93
2018-04-09T07:18:49.885Z,7.70
2018-04-09T07:21:17.358Z,7.97
2018-04-09T07:23:44.790Z,7.77
2018-04-09T07:26:12.236Z,8.20
2018-04-09T07:28:39.681Z,7.77
2018-04-09T07:31:07.147Z,10.27
2018-04-09T07:33:34.598Z,8.60
2018-04-09T07:36:02.062Z,8.10
2018-04-09T07:38:29.512Z,8.57
2018-04-09T07:40:56.970Z,7.93
2018-04-09T07:43:24.424Z,8.10
2018-04-09T07:45:51.870Z,7.93
2018-04-09T07:48:19.323Z,8.30
2018-04-09T07:50:46.794Z,7.97
2018-04-09T07:53:14.979Z,7.27
2018-04-09T07:55:42.435Z,8.20
2018-04-09T07:58:09.896Z,7.80
2018-04-09T08:00:37.351Z,8.10
2018-04-09T08:03:04.804Z,8.10
2018-04-09T08:05:32.264Z,7.70
2018-04-09T08:07:59.716Z,7.90
2018-04-09T08:10:27.175Z,9.20
2018-04-09T08:12:54.654Z,8.53
2018-04-09T08:15:22.110Z,7.33
2018-04-09T08:17:49.558Z,6.57
2018-04-09T08:20:17.025Z,7.00
2018-04-09T08:22:44.462Z,7.70
2018-04-09T08:25:11.917Z,7.43
2018-04-09T08:27:39.368Z,7.80
2018-04-09T08:30:06.825Z,7.00
2018-04-09T08:32:34.265Z,7.10
2018-04-09T08:35:01.725Z,7.80
2018-04-09T08:37:29.173Z,7.60
2018-04-09T08:39:57.394Z,7.30
2018-04-09T08:42:24.848Z,6.93
2018-04-09T08:44:52.292Z,7.63
2018-04-09T08:47:19.737Z,7.50
2018-04-09T08:49:47.191Z,7.03
2018-04-09T08:52:14.633Z,6.30
2018-04-09T08:54:42.857Z,7.23
2018-04-09T08:57:10.307Z,6.80
2018-04-09T08:59:37.757Z,7.43
2018-04-09T09:02:05.221Z,6.60
2018-04-09T09:04:32.664Z,6.47
2018-04-09T09:07:00.128Z,6.90
2018-04-09T09:09:27.562Z,6.40
2018-04-09T09:11:55.230Z,6.83
2018-04-09T09:14:22.675Z,6.70
2018-04-09T09:16:50.897Z,6.90
2018-04-09T09:19:18.362Z,6.37
2018-04-09T09:21:45.809Z,6.37
2018-04-09T09:24:13.249Z,7.00
2018-04-09T09:26:40.708Z,7.37
2018-04-09T09:29:09.040Z,6.80
2018-04-09T09:31:36.858Z,6.90
2018-04-09T09:34:04.299Z,6.30
2018-04-09T09:36:31.745Z,6.63
2018-04-09T09:38:59.209Z,5.87
2018-04-09T09:41:26.645Z,5.97
2018-04-09T09:43:54.870Z,5.60
2018-04-09T09:46:22.320Z,6.03
2018-04-09T09:48:49.768Z,6.60
2018-04-09T09:51:17.217Z,7.00
2018-04-09T09:53:44.669Z,6.50
2018-04-09T09:56:12.121Z,5.70
2018-04-09T09:58:39.592Z,5.87
2018-04-09T10:01:09.925Z,5.83
2018-04-09T10:03:37.381Z,6.63
2018-04-09T10:06:04.834Z,6.30
2018-04-09T10:08:32.292Z,5.10
2018-04-09T10:10:59.743Z,6.50
2018-04-09T10:13:27.203Z,6.00
2018-04-09T10:15:54.644Z,5.53
2018-04-09T10:18:22.110Z,6.27
2018-04-09T10:20:49.553Z,5.43
2018-04-09T10:23:17.003Z,6.30
2018-04-09T10:25:45.247Z,6.17
2018-04-09T10:28:12.702Z,5.30
2018-04-09T10:30:40.150Z,6.67
2018-04-09T10:33:07.611Z,5.87
2018-04-09T10:35:35.052Z,5.80
2018-04-09T10:38:02.534Z,6.10
2018-04-09T10:40:29.981Z,6.00
2018-04-09T10:42:57.433Z,5.37
2018-04-09T10:45:24.889Z,6.20
2018-04-09T10:47:52.347Z,5.33
2018-04-09T10:50:19.799Z,5.10
2018-04-09T10:52:47.244Z,5.83
2018-04-09T10:55:14.815Z,5.77
2018-04-09T10:57:42.253Z,6.30
2018-04-09T11:00:09.710Z,5.97
2018-04-09T11:02:37.155Z,6.43
2018-04-09T11:05:05.570Z,6.00
2018-04-09T11:07:33.033Z,6.40
2018-04-09T11:10:00.477Z,6.07
2018-04-09T11:12:27.942Z,5.90
2018-04-09T11:14:55.457Z,6.40
2018-04-09T11:17:22.920Z,6.70
2018-04-09T11:19:50.370Z,6.47
2018-04-09T11:22:18.580Z,6.00
2018-04-09T11:24:46.036Z,5.13
2018-04-09T11:27:13.476Z,5.60
2018-04-09T11:29:40.945Z,5.30
2018-04-09T11:32:08.406Z,4.97
2018-04-09T11:34:35.852Z,6.07
2018-04-09T11:37:03.328Z,5.63
2018-04-09T11:39:30.753Z,4.90
2018-04-09T11:41:58.973Z,5.50
2018-04-09T11:44:26.419Z,5.40
2018-04-09T11:46:53.854Z,5.37
2018-04-09T11:49:21.321Z,5.47
2018-04-09T11:51:48.763Z,5.07
2018-04-09T11:54:16.224Z,4.47
2018-04-09T11:56:43.663Z,4.90
2018-04-09T11:59:11.899Z,5.10
2018-04-09T12:01:39.365Z,4.87
2018-04-09T12:04:06.835Z,5.43
2018-04-09T12:06:34.281Z,5.60
2018-04-09T12:09:01.765Z,4.90
2018-04-09T12:11:29.980Z,5.23
2018-04-09T12:13:57.437Z,4.77
2018-04-09T12:16:24.887Z,4.93
2018-04-09T12:18:52.332Z,4.90
2018-04-09T12:21:19.773Z,5.20
2018-04-09T12:23:47.992Z,5.43
2018-04-09T12:26:15.456Z,4.50
2018-04-09T12:28:42.908Z,4.60
2018-04-09T12:31:10.339Z,5.43
2018-04-09T12:33:38.811Z,5.00
2018-04-09T12:36:06.259Z,5.97
2018-04-09T12:38:34.485Z,5.00
2018-04-09T12:41:02.954Z,5.23
2018-04-09T12:43:30.407Z,5.30
2018-04-09T12:45:57.856Z,5.17
2018-04-09T12:48:25.301Z,5.10
2018-04-09T12:50:52.770Z,4.53
2018-04-09T12:53:20.213Z,4.33
2018-04-09T12:55:47.667Z,5.47
2018-04-09T12:58:15.136Z,6.00
2018-04-09T13:00:43.333Z,5.67
2018-04-09T13:03:10.783Z,5.43
2018-04-09T13:05:38.233Z,6.27
2018-04-09T13:08:05.708Z,5.17
2018-04-09T13:10:33.245Z,5.50
2018-04-09T13:13:00.670Z,5.30
2018-04-09T13:15:28.892Z,6.03
2018-04-09T13:17:56.345Z,6.00
2018-04-09T13:20:23.861Z,4.50
2018-04-09T13:22:51.290Z,5.20
2018-04-09T13:25:18.765Z,5.77
2018-04-09T13:27:46.216Z,5.37
2018-04-09T13:30:13.666Z,5.53
2018-04-09T13:32:41.233Z,5.50
2018-04-09T13:35:08.680Z,5.60
2018-04-09T13:37:36.188Z,6.63
2018-04-09T13:40:03.635Z,5.80
2018-04-09T13:42:31.080Z,6.43
2018-04-09T13:44:59.935Z,5.93
2018-04-09T13:47:27.387Z,4.70
2018-04-09T13:49:54.836Z,5.47
2018-04-09T13:52:22.286Z,6.73
2018-04-09T13:54:49.738Z,6.07
2018-04-09T13:57:17.193Z,6.73
2018-04-09T13:59:44.649Z,6.17
2018-04-09T14:02:12.091Z,6.10
2018-04-09T14:04:39.625Z,6.07
2018-04-09T14:07:07.839Z,6.40
2018-04-09T14:09:35.285Z,6.13
2018-04-09T14:12:02.732Z,6.80
2018-04-09T14:14:30.189Z,6.07
2018-04-09T14:16:57.683Z,6.67
2018-04-09T14:19:25.146Z,7.07
2018-04-09T14:21:52.584Z,6.40
2018-04-09T14:24:20.049Z,5.43
2018-04-09T14:26:47.488Z,5.93
2018-04-09T14:29:14.947Z,5.60
2018-04-09T14:31:42.395Z,6.60
2018-04-09T14:34:09.882Z,5.50
2018-04-09T14:36:38.052Z,5.93
2018-04-09T14:39:06.414Z,6.83
2018-04-09T14:41:33.952Z,6.63
2018-04-09T14:44:02.172Z,6.60
2018-04-09T14:46:30.724Z,6.93
2018-04-09T14:48:58.170Z,6.27
2018-04-09T14:51:26.373Z,6.43
2018-04-09T14:53:53.828Z,7.13
2018-04-09T14:56:21.271Z,7.27
2018-04-09T14:58:48.725Z,8.03
2018-04-09T15:01:16.169Z,6.77
2018-04-09T15:03:44.395Z,6.57
2018-04-09T15:06:11.849Z,8.53
2018-04-09T15:08:39.300Z,6.80
2018-04-09T15:11:06.745Z,6.47
2018-04-09T15:13:34.194Z,8.33
2018-04-09T15:16:01.629Z,7.70
2018-04-09T15:18:29.837Z,6.63
2018-04-09T15:20:57.290Z,7.40
2018-04-09T15:23:24.734Z,8.23
2018-04-09T15:25:52.180Z,9.23
2018-04-09T15:28:20.385Z,8.90
2018-04-09T15:30:47.893Z,9.20
2018-04-09T15:33:16.324Z,7.50
2018-04-09T15:35:44.511Z,7.70
2018-04-09T15:38:11.942Z,8.17
2018-04-09T15:40:39.387Z,8.87
2018-04-09T15:43:07.600Z,9.40
2018-04-09T15:45:35.057Z,9.67
2018-04-09T15:48:02.506Z,10.83
2018-04-09T15:50:29.962Z,10.30
2018-04-09T15:52:57.425Z,8.20
2018-04-09T15:55:24.883Z,9.87
2018-04-09T15:57:52.339Z,10.47
2018-04-09T16:00:19.798Z,12.60
2018-04-09T16:02:47.247Z,10.87
2018-04-09T16:05:14.707Z,10.67
2018-04-09T16:07:42.166Z,11.70
2018-04-09T16:10:09.617Z,10.70
2018-04-09T16:12:37.076Z,10.63
2018-04-09T16:15:04.532Z,11.13
2018-04-09T16:17:31.984Z,10.17
2018-04-09T16:19:59.432Z,9.20
2018-04-09T16:22:26.889Z,10.23
2018-04-09T16:24:55.246Z,9.70
2018-04-09T16:27:23.473Z,10.67
2018-04-09T16:29:50.943Z,8.97
2018-04-09T16:32:18.441Z,11.37
2018-04-09T16:34:45.863Z,11.80
2018-04-09T16:37:14.397Z,11.70
2018-04-09T16:39:42.140Z,11.67
2018-04-09T16:42:09.595Z,11.90
2018-04-09T16:44:37.823Z,13.00
2018-04-09T16:47:05.360Z,15.37
2018-04-09T16:49:32.808Z,12.43
2018-04-09T16:52:00.263Z,12.57
2018-04-09T16:54:27.699Z,14.57
2018-04-09T16:56:56.017Z,13.30
2018-04-09T16:59:23.479Z,13.83
2018-04-09T17:01:50.919Z,12.93
2018-04-09T17:04:18.377Z,13.07
2018-04-09T17:06:45.823Z,12.70
2018-04-09T17:09:13.378Z,12.80
2018-04-09T17:11:40.848Z,11.90
2018-04-09T17:14:08.405Z,11.97
2018-04-09T17:16:36.621Z,13.13
2018-04-09T17:19:04.077Z,11.07
2018-04-09T17:21:31.536Z,12.73
2018-04-09T17:23:58.994Z,11.33
2018-04-09T17:26:31.420Z,12.00
2018-04-09T17:28:58.875Z,10.80
2018-04-09T17:31:27.089Z,12.27
2018-04-09T17:33:54.542Z,11.77
2018-04-09T17:36:22.001Z,9.87
2018-04-09T17:38:49.533Z,9.40
2018-04-09T17:41:16.977Z,9.40
2018-04-09T17:43:45.915Z,11.17
2018-04-09T17:46:13.375Z,9.20
2018-04-09T17:48:40.918Z,8.40
2018-04-09T17:51:08.373Z,9.60
2018-04-09T17:53:35.826Z,8.97
2018-04-09T17:56:03.271Z,8.20
2018-04-09T17:58:30.732Z,7.77
2018-04-09T18:00:58.276Z,8.27
2018-04-09T18:03:26.487Z,7.60
2018-04-09T18:05:53.972Z,8.03
2018-04-09T18:08:22.175Z,7.97
2018-04-09T18:10:50.468Z,6.90
2018-04-09T18:13:17.907Z,7.77
2018-04-09T18:15:46.220Z,7.57
2018-04-09T18:18:13.743Z,8.37
2018-04-09T18:20:42.043Z,9.83
2018-04-09T18:23:09.488Z,7.00
2018-04-09T18:25:37.715Z,7.80
2018-04-09T18:28:05.163Z,8.97
2018-04-09T18:30:32.695Z,8.37
2018-04-09T18:33:00.141Z,9.83
2018-04-09T18:35:27.579Z,8.77
2018-04-09T18:37:55.807Z,7.63
2018-04-09T18:40:23.265Z,7.23
2018-04-09T18:42:50.728Z,7.70
2018-04-09T18:45:18.177Z,7.37
2018-04-09T18:47:45.764Z,7.50
2018-04-09T18:50:13.206Z,7.03
2018-04-09T18:52:40.733Z,7.13
2018-04-09T18:55:08.164Z,7.67
2018-04-09T18:57:36.463Z,7.50
2018-04-09T19:00:03.906Z,7.13
2018-04-09T19:02:32.207Z,7.27
2018-04-09T19:04:59.650Z,7.33
2018-04-09T19:07:27.111Z,7.10
2018-04-09T19:09:54.655Z,7.97
2018-04-09T19:12:22.877Z,5.93
2018-04-09T19:14:50.339Z,7.13
2018-04-09T19:17:17.791Z,7.33
2018-04-09T19:19:45.300Z,5.90
2018-04-09T19:22:12.790Z,7.80
2018-04-09T19:24:40.226Z,6.80
2018-04-09T19:27:07.675Z,5.97
2018-04-09T19:29:35.886Z,5.90
2018-04-09T19:32:03.340Z,6.53
2018-04-09T19:34:30.792Z,6.30
2018-04-09T19:37:03.807Z,6.27
2018-04-09T19:39:34.236Z,7.20
2018-04-09T19:42:01.676Z,6.93
2018-04-09T19:44:30.291Z,7.20
2018-04-09T19:46:57.757Z,6.10
2018-04-09T19:49:25.199Z,7.83
2018-04-09T19:51:52.660Z,6.60
2018-04-09T19:54:20.108Z,6.30
2018-04-09T19:56:47.619Z,7.13
2018-04-09T19:59:15.084Z,7.20
2018-04-09T20:01:42.539Z,7.47
2018-04-09T20:04:09.989Z,6.87
2018-04-09T20:06:38.272Z,6.57
2018-04-09T20:09:05.829Z,7.60
2018-04-09T20:11:33.392Z,7.20
2018-04-09T20:14:00.850Z,7.37
2018-04-09T20:16:28.398Z,6.33
2018-04-09T20:18:56.681Z,7.60
2018-04-09T20:21:24.089Z,7.43
2018-04-09T20:23:51.583Z,8.80
2018-04-09T20:26:19.809Z,7.90
2018-04-09T20:28:47.263Z,8.87
2018-04-09T20:31:14.718Z,8.20
2018-04-09T20:33:42.234Z,8.10
2018-04-09T20:36:10.454Z,9.90
2018-04-09T20:38:37.898Z,7.10
2018-04-09T20:41:05.355Z,9.20
2018-04-09T20:43:32.816Z,8.90
2018-04-09T20:46:00.269Z,7.73
2018-04-09T20:48:27.712Z,9.93
2018-04-09T20:50:55.153Z,8.70
2018-04-09T20:53:23.385Z,7.67
2018-04-09T20:55:50.879Z,8.73
2018-04-09T20:58:18.283Z,9.47
2018-04-09T21:00:45.731Z,8.10
2018-04-09T21:03:13.188Z,9.97
2018-04-09T21:05:40.650Z,9.47
2018-04-09T21:08:08.107Z,8.87
2018-04-09T21:10:35.556Z,8.73
2018-04-09T21:13:03.011Z,9.33
2018-04-09T21:15:30.460Z,9.10
2018-04-09T21:17:57.907Z,7.53
2018-04-09T21:20:25.353Z,9.53
2018-04-09T21:22:53.571Z,7.73
2018-04-09T21:25:21.034Z,8.50
2018-04-09T21:27:48.495Z,7.80
2018-04-09T21:30:15.937Z,8.00
2018-04-09T21:32:43.392Z,7.77
2018-04-09T21:35:10.834Z,7.80
2018-04-09T21:37:38.295Z,8.67
2018-04-09T21:40:05.750Z,8.10
2018-04-09T21:42:33.214Z,7.80
2018-04-09T21:45:00.647Z,8.23
2018-04-09T21:47:28.864Z,8.37
2018-04-09T21:49:56.313Z,9.03
2018-04-09T21:52:23.781Z,9.37
2018-04-09T21:54:51.241Z,10.73
2018-04-09T21:57:18.692Z,8.90
2018-04-09T21:59:46.139Z,11.23
2018-04-09T22:02:13.602Z,11.20
2018-04-09T22:04:41.112Z,11.53
2018-04-09T22:07:08.548Z,11.53
2018-04-09T22:09:35.999Z,11.57
2018-04-09T22:12:03.467Z,10.20
2018-04-09T22:14:32.346Z,11.73
2018-04-09T22:16:59.857Z,11.77
2018-04-09T22:19:27.307Z,11.20
2018-04-09T22:21:54.759Z,10.53
2018-04-09T22:24:23.039Z,10.57
2018-04-09T22:26:51.278Z,11.00
2018-04-09T22:29:18.724Z,11.60
2018-04-09T22:31:46.178Z,10.33
2018-04-09T22:34:13.618Z,10.60
2018-04-09T22:36:41.086Z,11.40
2018-04-09T22:39:08.557Z,11.47
2018-04-09T22:41:35.979Z,11.90
2018-04-09T22:44:03.428Z,10.13
2018-04-09T22:46:30.872Z,12.83
2018-04-09T22:48:59.160Z,11.37
2018-04-09T22:51:26.606Z,10.60
2018-04-09T22:53:54.832Z,10.93
2018-04-09T22:56:22.294Z,11.13
2018-04-09T22:58:49.749Z,11.37
2018-04-09T23:01:17.194Z,10.37
2018-04-09T23:03:44.666Z,10.77
2018-04-09T23:06:12.102Z,10.70
2018-04-09T23:08:40.573Z,10.77
2018-04-09T23:11:08.028Z,10.77
2018-04-09T23:13:35.485Z,11.50
2018-04-09T23:16:02.931Z,12.00
2018-04-09T23:18:30.383Z,11.47
2018-04-09T23:20:57.844Z,12.00
2018-04-09T23:23:25.296Z,12.37
2018-04-09T23:25:52.752Z,12.80
2018-04-09T23:28:20.223Z,12.60
2018-04-09T23:30:47.670Z,11.17
2018-04-09T23:33:15.132Z,10.50
2018-04-09T23:35:42.584Z,10.40
2018-04-09T23:38:10.803Z,11.07
2018-04-09T23:40:38.247Z,12.13
2018-04-09T23:43:05.708Z,11.63
2018-04-09T23:45:33.156Z,11.63
2018-04-09T23:48:00.610Z,10.50
2018-04-09T23:50:28.079Z,12.60
2018-04-09T23:52:55.524Z,11.37
2018-04-09T23:55:22.983Z,11.50
2018-04-09T23:57:50.455Z,13.60
